Terminal Aerodrome Forecast
Issued by NWS

Home | Current Version | Previous Version | Text Only | Print | Product List | Glossary On
Versions: 1 2 3 4 5 6 7 8 9 10 11 12 13 14 15 16 17 18 19 20 21 22 23 24 25 26 27 28 29 30 31 32 33 34 35 36 37 38 39 40 41 42 43 44 45 46 47 48 49 50
000
FTUS41 KCTP 261140
TAFUNV
TAF
KUNV 261140Z 2612/2712 03003KT 2SM -DZ BR BKN002 OVC006
      TEMPO 2612/2614 4SM BR OVC004
     FM261400 34003KT 5SM BR OVC007
     FM261600 VRB03KT P6SM BKN015 OVC025
     FM262100 16004KT P6SM BKN035
     FM262300 15004KT P6SM BKN010 OVC022
     FM270500 15007KT 3SM -DZ BR OVC005=

USA.gov is the U.S. government's official web portal to all federal, state and local government web resources and services.